createdAt,value
2018-09-01T00:00:22.400Z,20.48
2018-09-01T00:01:02.926Z,20.47
2018-09-01T00:01:43.455Z,20.51
2018-09-01T00:02:23.958Z,20.51
2018-09-01T00:03:04.479Z,20.57
2018-09-01T00:03:44.997Z,20.57
2018-09-01T00:04:26.296Z,20.5
2018-09-01T00:05:06.809Z,20.5
2018-09-01T00:05:47.340Z,20.43
2018-09-01T00:06:27.851Z,20.48
2018-09-01T00:07:08.380Z,20.43
2018-09-01T00:07:48.886Z,20.48
2018-09-01T00:08:29.400Z,20.5
2018-09-01T00:09:09.948Z,20.57
2018-09-01T00:09:50.476Z,20.47
2018-09-01T00:10:30.976Z,20.47
2018-09-01T00:11:11.581Z,20.47
2018-09-01T00:11:52.023Z,20.42
2018-09-01T00:12:32.540Z,20.39
2018-09-01T00:13:13.059Z,20.42
2018-09-01T00:13:53.571Z,20.42
2018-09-01T00:14:34.098Z,20.54
2018-09-01T00:15:15.068Z,20.5
2018-09-01T00:15:55.202Z,20.35
2018-09-01T00:16:35.733Z,20.54
2018-09-01T00:17:16.260Z,20.47
2018-09-01T00:17:56.769Z,20.36
2018-09-01T00:18:37.288Z,20.42
2018-09-01T00:19:17.812Z,20.36
2018-09-01T00:19:58.349Z,20.48
2018-09-01T00:20:38.872Z,20.32
2018-09-01T00:21:19.405Z,20.26
2018-09-01T00:21:59.933Z,20.24
2018-09-01T00:22:40.504Z,20.28
2018-09-01T00:23:21.032Z,20.33
2018-09-01T00:24:01.567Z,20.38
2018-09-01T00:24:42.113Z,20.35
2018-09-01T00:25:22.684Z,20.35
2018-09-01T00:26:03.199Z,20.31
2018-09-01T00:26:43.724Z,20.26
2018-09-01T00:27:24.258Z,20.39
2018-09-01T00:28:04.806Z,20.41
2018-09-01T00:28:45.343Z,20.35
2018-09-01T00:29:25.850Z,20.31
2018-09-01T00:30:06.392Z,20.36
2018-09-01T00:30:47.068Z,20.38
2018-09-01T00:31:27.457Z,20.29
2018-09-01T00:32:07.989Z,20.32
2018-09-01T00:32:48.525Z,20.38
2018-09-01T00:33:29.046Z,20.33
2018-09-01T00:34:09.562Z,20.36
2018-09-01T00:34:50.077Z,20.24
2018-09-01T00:35:30.590Z,20.31
2018-09-01T00:36:11.116Z,20.33
2018-09-01T00:36:51.630Z,20.47
2018-09-01T00:37:32.217Z,20.39
2018-09-01T00:38:12.692Z,20.39
2018-09-01T00:38:53.209Z,20.33
2018-09-01T00:39:33.726Z,20.32
2018-09-01T00:40:14.242Z,20.38
2018-09-01T00:40:54.776Z,20.33
2018-09-01T00:41:35.289Z,20.41
2018-09-01T00:42:15.814Z,20.42
2018-09-01T00:42:56.318Z,20.41
2018-09-01T00:43:36.830Z,20.38
2018-09-01T00:44:17.354Z,20.42
2018-09-01T00:44:57.898Z,20.33
2018-09-01T00:45:38.411Z,20.35
2018-09-01T00:46:18.995Z,20.23
2018-09-01T00:46:59.512Z,20.35
2018-09-01T00:47:40.035Z,20.33
2018-09-01T00:48:20.649Z,20.28
2018-09-01T00:49:01.085Z,20.21
2018-09-01T00:49:41.605Z,20.26
2018-09-01T00:50:22.127Z,20.31
2018-09-01T00:51:02.644Z,20.32
2018-09-01T00:51:43.171Z,20.32
2018-09-01T00:52:23.700Z,20.29
2018-09-01T00:53:04.285Z,20.28
2018-09-01T00:53:44.781Z,20.13
2018-09-01T00:54:25.290Z,20.18
2018-09-01T00:55:05.801Z,20.17
2018-09-01T00:55:46.341Z,20.18
2018-09-01T00:56:26.854Z,20.18
2018-09-01T00:57:07.383Z,20.17
2018-09-01T00:57:47.876Z,20.21
2018-09-01T00:58:28.391Z,20.03
2018-09-01T00:59:08.908Z,20.06
2018-09-01T00:59:49.432Z,20.06
2018-09-01T01:00:29.952Z,20.03
2018-09-01T01:01:10.545Z,20.14
2018-09-01T01:01:50.993Z,20.06
2018-09-01T01:02:31.510Z,20.11
2018-09-01T01:03:12.048Z,20.16
2018-09-01T01:03:52.568Z,20.11
2018-09-01T01:04:33.086Z,20.06
2018-09-01T01:05:13.603Z,20.13
2018-09-01T01:05:54.130Z,20.11
2018-09-01T01:06:34.664Z,20.05
2018-09-01T01:07:15.181Z,20.16
2018-09-01T01:07:55.714Z,20.06
2018-09-01T01:08:36.256Z,20.05
2018-09-01T01:09:16.765Z,20.08
2018-09-01T01:09:57.291Z,20.06
2018-09-01T01:10:37.814Z,20.1
2018-09-01T01:11:18.357Z,20.06
2018-09-01T01:11:58.871Z,20.2
2018-09-01T01:12:39.399Z,20.17
2018-09-01T01:13:19.931Z,20.16
2018-09-01T01:14:00.452Z,20.1
2018-09-01T01:14:40.982Z,20.2
2018-09-01T01:15:21.535Z,20.14
2018-09-01T01:16:02.089Z,20.21
2018-09-01T01:16:42.635Z,20.24
2018-09-01T01:17:23.161Z,20.31
2018-09-01T01:18:03.680Z,20.26
2018-09-01T01:18:44.194Z,20.29
2018-09-01T01:19:24.715Z,20.32
2018-09-01T01:20:05.267Z,20.35
2018-09-01T01:20:45.799Z,20.33
2018-09-01T01:21:26.317Z,20.42
2018-09-01T01:22:06.862Z,20.32
2018-09-01T01:22:47.395Z,20.32
2018-09-01T01:23:27.931Z,20.39
2018-09-01T01:24:08.452Z,20.39
2018-09-01T01:24:48.981Z,20.48
2018-09-01T01:25:29.493Z,20.42
2018-09-01T01:26:10.017Z,20.5
2018-09-01T01:26:50.548Z,20.35
2018-09-01T01:27:31.042Z,20.42
2018-09-01T01:28:11.562Z,20.43
2018-09-01T01:28:52.070Z,20.39
2018-09-01T01:29:32.663Z,20.42
2018-09-01T01:30:13.205Z,20.43
2018-09-01T01:30:53.721Z,20.43
2018-09-01T01:31:34.255Z,20.43
2018-09-01T01:32:14.783Z,20.43
2018-09-01T01:32:55.301Z,20.43
2018-09-01T01:33:35.833Z,20.48
2018-09-01T01:34:16.344Z,20.38
2018-09-01T01:34:56.857Z,20.48
2018-09-01T01:35:37.383Z,20.41
2018-09-01T01:36:17.916Z,20.43
2018-09-01T01:36:58.424Z,20.38
2018-09-01T01:37:38.971Z,20.39
2018-09-01T01:38:19.494Z,20.38
2018-09-01T01:39:00.006Z,20.5
2018-09-01T01:39:40.536Z,20.42
2018-09-01T01:40:21.045Z,20.51
2018-09-01T01:41:01.557Z,20.39
2018-09-01T01:41:42.082Z,20.48
2018-09-01T01:42:22.619Z,20.51
2018-09-01T01:43:03.129Z,20.58
2018-09-01T01:43:43.647Z,20.51
2018-09-01T01:45:56.914Z,20.38
2018-09-01T01:46:37.418Z,20.43
2018-09-01T01:47:17.919Z,20.39
2018-09-01T01:47:58.444Z,20.47
2018-09-01T01:48:38.961Z,20.43
2018-09-01T01:49:19.478Z,20.35
2018-09-01T01:49:59.991Z,20.51
2018-09-01T01:50:40.497Z,20.47
2018-09-01T01:51:21.003Z,20.42
2018-09-01T01:52:01.532Z,20.48
2018-09-01T01:52:42.047Z,20.43
2018-09-01T01:53:22.589Z,20.51
2018-09-01T01:54:03.117Z,20.41
2018-09-01T01:54:43.638Z,20.52
2018-09-01T01:55:24.168Z,20.5
2018-09-01T01:56:04.669Z,20.47
2018-09-01T01:56:45.350Z,20.52
2018-09-01T01:57:25.880Z,20.43
2018-09-01T01:58:06.397Z,20.51
2018-09-01T01:58:47.131Z,20.48
2018-09-01T01:59:27.640Z,20.52
2018-09-01T02:00:08.159Z,20.51
2018-09-01T02:00:48.675Z,20.5
2018-09-01T02:01:29.184Z,20.51
2018-09-01T02:02:09.699Z,20.5
2018-09-01T02:02:50.220Z,20.61
2018-09-01T02:03:30.750Z,20.58
2018-09-01T02:04:11.278Z,20.58
2018-09-01T02:04:51.796Z,20.58
2018-09-01T02:05:32.316Z,20.62
2018-09-01T02:06:12.848Z,20.61
2018-09-01T02:06:53.367Z,20.59
2018-09-01T02:07:33.938Z,20.55
2018-09-01T02:08:14.465Z,20.47
2018-09-01T02:08:54.981Z,20.52
2018-09-01T02:09:35.503Z,20.5
2018-09-01T02:10:16.051Z,20.57
2018-09-01T02:10:56.577Z,20.5
2018-09-01T02:11:37.093Z,20.61
2018-09-01T02:12:17.611Z,20.55
2018-09-01T02:12:58.132Z,20.55
2018-09-01T02:13:38.667Z,20.51
2018-09-01T02:14:19.180Z,20.58
2018-09-01T02:14:59.724Z,20.54
2018-09-01T02:15:40.240Z,20.58
2018-09-01T02:16:20.749Z,20.42
2018-09-01T02:17:01.271Z,20.43
2018-09-01T02:17:41.785Z,20.38
2018-09-01T02:18:22.299Z,20.33
2018-09-01T02:19:02.818Z,20.47
2018-09-01T02:19:43.345Z,20.43
2018-09-01T02:20:23.865Z,20.42
2018-09-01T02:21:04.390Z,20.39
2018-09-01T02:21:44.912Z,20.32
2018-09-01T02:22:25.439Z,20.38
2018-09-01T02:23:05.954Z,20.42
2018-09-01T02:23:46.480Z,20.43
2018-09-01T02:24:27.002Z,20.5
2018-09-01T02:25:07.521Z,20.47
2018-09-01T02:25:48.036Z,20.39
2018-09-01T02:26:28.551Z,20.48
2018-09-01T02:27:09.074Z,20.42
2018-09-01T02:27:49.590Z,20.55
2018-09-01T02:28:30.114Z,20.52
2018-09-01T02:29:10.629Z,20.54
2018-09-01T02:29:51.138Z,20.5
2018-09-01T02:30:31.656Z,20.5
2018-09-01T02:31:12.195Z,20.48
2018-09-01T02:31:52.696Z,20.5
2018-09-01T02:32:33.211Z,20.39
2018-09-01T02:33:13.729Z,20.33
2018-09-01T02:33:54.261Z,20.33
2018-09-01T02:34:34.775Z,20.31
2018-09-01T02:35:15.353Z,20.38
2018-09-01T02:35:55.886Z,20.29
2018-09-01T02:36:36.410Z,20.26
2018-09-01T02:37:16.934Z,20.33
2018-09-01T02:37:57.452Z,20.35
2018-09-01T02:38:37.957Z,20.26
2018-09-01T02:39:18.473Z,20.33
2018-09-01T02:39:58.991Z,20.33
2018-09-01T02:40:39.515Z,20.29
2018-09-01T02:41:20.165Z,20.26
2018-09-01T02:42:00.689Z,20.31
2018-09-01T02:42:41.202Z,20.29
2018-09-01T02:43:21.709Z,20.17
2018-09-01T02:44:02.243Z,20.05
2018-09-01T02:44:42.771Z,19.96
2018-09-01T02:45:23.353Z,19.88
2018-09-01T02:46:03.876Z,19.98
2018-09-01T02:46:44.402Z,19.92
2018-09-01T02:48:37.670Z,20.08
2018-09-01T02:49:18.181Z,19.98
2018-09-01T02:49:58.710Z,19.96
2018-09-01T02:50:39.408Z,19.92
2018-09-01T02:51:20.174Z,19.92
2018-09-01T02:52:00.699Z,19.84
2018-09-01T02:52:41.217Z,19.94
2018-09-01T02:53:21.739Z,19.86
2018-09-01T02:54:02.265Z,19.73
2018-09-01T02:54:42.793Z,19.71
2018-09-01T02:55:23.311Z,19.8
2018-09-01T02:56:03.833Z,19.76
2018-09-01T02:56:44.363Z,19.66
2018-09-01T02:57:24.861Z,19.73
2018-09-01T02:58:05.515Z,19.73
2018-09-01T02:58:46.036Z,19.76
2018-09-01T02:59:26.562Z,19.73
2018-09-01T03:00:07.100Z,19.77
2018-09-01T03:00:47.612Z,19.76
2018-09-01T03:01:28.131Z,19.76
2018-09-01T03:02:08.651Z,19.71
2018-09-01T03:02:49.171Z,19.56
2018-09-01T03:03:29.725Z,19.48
2018-09-01T03:04:10.240Z,19.63
2018-09-01T03:04:50.771Z,19.58
2018-09-01T03:05:31.300Z,19.54
2018-09-01T03:06:11.810Z,19.4
2018-09-01T03:06:52.339Z,19.48
2018-09-01T03:07:32.855Z,19.33
2018-09-01T03:08:13.377Z,19.4
2018-09-01T03:08:53.909Z,19.29
2018-09-01T03:09:34.416Z,19.29
2018-09-01T03:10:14.935Z,19.39
2018-09-01T03:10:55.484Z,19.37
2018-09-01T03:11:36.055Z,19.23
2018-09-01T03:12:16.566Z,19.33
2018-09-01T03:12:57.101Z,19.31
2018-09-01T03:13:37.610Z,19.4
2018-09-01T03:14:18.124Z,19.44
2018-09-01T03:14:58.656Z,19.5
2018-09-01T03:15:39.180Z,19.54
2018-09-01T03:16:19.692Z,19.56
2018-09-01T03:17:00.239Z,19.54
2018-09-01T03:17:40.755Z,19.44
2018-09-01T03:18:21.460Z,19.44
2018-09-01T03:19:02.025Z,19.44
2018-09-01T03:19:42.658Z,19.44
2018-09-01T03:20:23.296Z,19.23
2018-09-01T03:21:03.815Z,19.19
2018-09-01T03:21:44.330Z,19.23
2018-09-01T03:22:24.852Z,19.37
2018-09-01T03:23:05.360Z,19.44
2018-09-01T03:23:45.887Z,19.43
2018-09-01T03:24:26.410Z,19.43
2018-09-01T03:25:06.944Z,19.23
2018-09-01T03:25:47.454Z,19.26
2018-09-01T03:26:27.977Z,19.14
2018-09-01T03:27:08.504Z,19.25
2018-09-01T03:27:49.018Z,19.13
2018-09-01T03:28:29.535Z,19.11
2018-09-01T03:29:10.055Z,19.07
2018-09-01T03:29:50.574Z,19.04
2018-09-01T03:30:31.108Z,18.98
2018-09-01T03:31:11.618Z,19.07
2018-09-01T03:31:52.139Z,18.9
2018-09-01T03:32:32.646Z,18.95
2018-09-01T03:33:13.173Z,18.85
2018-09-01T03:33:53.702Z,18.87
2018-09-01T03:34:34.235Z,18.69
2018-09-01T03:35:14.742Z,18.82
2018-09-01T03:35:55.269Z,18.78
2018-09-01T03:36:35.786Z,18.75
2018-09-01T03:37:16.311Z,18.76
2018-09-01T03:37:56.850Z,18.75
2018-09-01T03:38:37.341Z,18.81
2018-09-01T03:39:18.048Z,18.78
2018-09-01T03:39:58.355Z,18.75
2018-09-01T03:40:38.880Z,18.72
2018-09-01T03:41:19.392Z,18.65
2018-09-01T03:41:59.912Z,18.66
2018-09-01T03:42:40.435Z,18.63
2018-09-01T03:43:20.985Z,18.63
2018-09-01T03:44:01.507Z,18.66
2018-09-01T03:44:42.037Z,18.72
2018-09-01T03:45:22.570Z,18.72
2018-09-01T03:46:03.084Z,18.6
2018-09-01T03:46:43.642Z,18.63
2018-09-01T03:47:24.158Z,18.52
2018-09-01T03:48:04.672Z,18.62
2018-09-01T03:48:45.188Z,18.63
2018-09-01T03:49:25.743Z,18.54
2018-09-01T03:50:06.259Z,18.58
2018-09-01T03:50:46.810Z,18.44
2018-09-01T03:51:27.294Z,18.51
2018-09-01T03:52:07.800Z,18.6
2018-09-01T03:52:48.351Z,18.54
2018-09-01T03:53:28.877Z,18.55
2018-09-01T03:54:09.391Z,18.57
2018-09-01T03:54:49.914Z,18.51
2018-09-01T03:55:30.442Z,18.57
2018-09-01T03:56:10.967Z,18.58
2018-09-01T03:56:51.477Z,18.54
2018-09-01T03:57:32.003Z,18.62
2018-09-01T03:58:12.511Z,18.58
2018-09-01T03:58:53.027Z,18.58
2018-09-01T03:59:33.566Z,18.48
2018-09-01T04:00:14.086Z,18.48
2018-09-01T04:00:54.620Z,18.63
2018-09-01T04:01:35.142Z,18.52
2018-09-01T04:02:15.657Z,18.42
2018-09-01T04:02:56.195Z,18.27
2018-09-01T04:03:36.702Z,18.33
2018-09-01T04:04:17.274Z,18.36
2018-09-01T04:04:57.796Z,18.3
2018-09-01T04:05:38.310Z,18.36
2018-09-01T04:06:18.828Z,18.36
2018-09-01T04:06:59.341Z,18.39
2018-09-01T04:07:39.856Z,18.37
2018-09-01T04:08:20.436Z,18.42
2018-09-01T04:09:00.978Z,18.47
2018-09-01T04:09:41.504Z,18.5
2018-09-01T04:10:22.021Z,18.58
2018-09-01T04:11:02.545Z,18.45
2018-09-01T04:11:43.060Z,18.6
2018-09-01T04:12:23.579Z,18.39
2018-09-01T04:13:04.109Z,18.42
2018-09-01T04:13:44.627Z,18.55
2018-09-01T04:14:25.136Z,18.44
2018-09-01T04:15:05.653Z,18.42
2018-09-01T04:15:46.228Z,18.33
2018-09-01T04:16:26.715Z,18.27
2018-09-01T04:17:07.225Z,18.25
2018-09-01T04:17:47.736Z,18.18
2018-09-01T04:18:28.245Z,18.3
2018-09-01T04:19:08.761Z,18.33
2018-09-01T04:19:49.277Z,18.27
2018-09-01T04:20:29.789Z,18.32
2018-09-01T04:21:10.323Z,18.2
2018-09-01T04:21:50.850Z,18.17
2018-09-01T04:22:31.357Z,18.15
2018-09-01T04:23:11.881Z,17.96
2018-09-01T04:23:52.389Z,17.99
2018-09-01T04:24:32.917Z,17.99
2018-09-01T04:25:13.427Z,18
2018-09-01T04:25:53.950Z,17.99
2018-09-01T04:26:34.478Z,18.08
2018-09-01T04:27:14.992Z,18.2
2018-09-01T04:27:55.514Z,18.2
2018-09-01T04:28:36.053Z,18.29
2018-09-01T04:29:16.584Z,18.27
2018-09-01T04:29:57.090Z,18.33
2018-09-01T04:30:37.617Z,18.41
2018-09-01T04:31:18.132Z,18.44
2018-09-01T04:31:58.650Z,18.42
2018-09-01T04:32:39.162Z,18.39
2018-09-01T04:33:19.674Z,18.47
2018-09-01T04:34:00.175Z,18.39
2018-09-01T04:34:40.706Z,18.45
2018-09-01T04:35:21.219Z,18.41
2018-09-01T04:36:01.738Z,18.41
2018-09-01T04:36:42.271Z,18.32
2018-09-01T04:37:22.914Z,18.36
2018-09-01T04:38:03.354Z,18.44
2018-09-01T04:38:43.882Z,18.41
2018-09-01T04:39:24.383Z,18.41
2018-09-01T04:40:04.920Z,18.35
2018-09-01T04:40:45.453Z,18.51
2018-09-01T04:41:26.797Z,18.29
2018-09-01T04:42:07.332Z,18.37
2018-09-01T04:42:47.898Z,18.41
2018-09-01T04:43:28.428Z,18.5
2018-09-01T04:44:08.977Z,18.45
2018-09-01T04:44:49.491Z,18.36
2018-09-01T04:45:30.006Z,18.3
2018-09-01T04:46:10.527Z,18.25
2018-09-01T04:46:51.040Z,18.17
2018-09-01T04:47:31.585Z,18.29
2018-09-01T04:48:12.113Z,18.3
2018-09-01T04:48:52.643Z,18.33
2018-09-01T04:49:33.153Z,18.21
2018-09-01T04:50:13.677Z,18.11
2018-09-01T04:50:54.193Z,18.17
2018-09-01T04:51:34.724Z,18.21
2018-09-01T04:52:15.238Z,18.27
2018-09-01T04:52:55.750Z,18.26
2018-09-01T04:53:36.572Z,18.2
2018-09-01T04:54:17.128Z,18.1
2018-09-01T04:54:57.646Z,18.17
2018-09-01T04:55:38.167Z,18.2
2018-09-01T04:56:18.690Z,18.17
2018-09-01T04:56:59.218Z,18.25
2018-09-01T04:57:39.844Z,18.3
2018-09-01T04:58:20.348Z,18.14
2018-09-01T04:59:00.864Z,18.15
2018-09-01T04:59:41.377Z,18.17
2018-09-01T05:00:21.941Z,18.27
2018-09-01T05:01:02.503Z,18.2
2018-09-01T05:01:42.989Z,18.27
2018-09-01T05:02:23.515Z,18.21
2018-09-01T05:03:04.037Z,18.11
2018-09-01T05:03:44.550Z,18.1
2018-09-01T05:04:25.234Z,18.33
2018-09-01T05:05:05.785Z,18.21
2018-09-01T05:05:46.317Z,18.1
2018-09-01T05:06:26.831Z,18.18
2018-09-01T05:07:07.357Z,18.23
2018-09-01T05:07:47.873Z,18.3
2018-09-01T05:08:28.382Z,18.3
2018-09-01T05:09:08.909Z,18.26
2018-09-01T05:09:49.428Z,18.32
2018-09-01T05:10:29.950Z,18.25
2018-09-01T05:11:10.455Z,18.27
2018-09-01T05:11:51.817Z,18.33
2018-09-01T05:12:32.327Z,18.39
2018-09-01T05:13:12.848Z,18.37
2018-09-01T05:13:53.428Z,18.41
2018-09-01T05:14:33.916Z,18.45
2018-09-01T05:15:14.427Z,18.45
2018-09-01T05:15:54.949Z,18.45
2018-09-01T05:16:35.473Z,18.39
2018-09-01T05:17:16.331Z,18.35
2018-09-01T05:17:56.877Z,18.47
2018-09-01T05:18:37.378Z,18.52
2018-09-01T05:19:17.932Z,18.55
2018-09-01T05:19:58.474Z,18.47
2018-09-01T05:20:38.998Z,18.39
2018-09-01T05:21:19.518Z,18.39
2018-09-01T05:22:00.055Z,18.41
2018-09-01T05:22:40.566Z,18.37
2018-09-01T05:23:21.124Z,18.33
2018-09-01T05:24:01.746Z,18.33
2018-09-01T05:24:42.170Z,18.33
2018-09-01T05:25:22.689Z,18.44
2018-09-01T05:26:03.207Z,18.5
2018-09-01T05:26:43.736Z,18.54
2018-09-01T05:27:24.252Z,18.6
2018-09-01T05:28:04.772Z,18.57
2018-09-01T05:28:45.301Z,18.58
2018-09-01T05:29:25.821Z,18.69
2018-09-01T05:30:06.352Z,18.7
2018-09-01T05:30:46.880Z,18.62
2018-09-01T05:31:28.021Z,18.6
2018-09-01T05:32:08.552Z,18.65
2018-09-01T05:32:49.067Z,18.6
2018-09-01T05:33:29.591Z,18.7
2018-09-01T05:34:10.115Z,18.65
2018-09-01T05:34:50.639Z,18.63
2018-09-01T05:35:31.153Z,18.69
2018-09-01T05:36:11.669Z,18.62
2018-09-01T05:36:52.202Z,18.78
2018-09-01T05:37:32.722Z,19
2018-09-01T05:38:13.257Z,19
2018-09-01T05:38:53.779Z,19.06
2018-09-01T05:39:34.288Z,19.18
2018-09-01T05:40:14.821Z,19.02
2018-09-01T05:40:55.341Z,19.02
2018-09-01T05:41:35.864Z,19.04
2018-09-01T05:42:16.388Z,19.08
2018-09-01T05:42:56.900Z,19
2018-09-01T05:43:37.436Z,19.07
2018-09-01T05:44:17.945Z,19.06
2018-09-01T05:44:58.467Z,19.04
2018-09-01T05:45:38.997Z,18.98
2018-09-01T05:46:19.515Z,19.06
2018-09-01T05:47:00.040Z,19.11
2018-09-01T05:47:40.573Z,19.23
2018-09-01T05:48:21.092Z,19.11
2018-09-01T05:49:01.730Z,19.08
2018-09-01T05:49:42.242Z,19.11
2018-09-01T05:50:22.769Z,19.08
2018-09-01T05:51:03.280Z,19.14
2018-09-01T05:51:43.805Z,19.04
2018-09-01T05:52:24.349Z,19
2018-09-01T05:53:04.845Z,19.02
2018-09-01T05:53:45.380Z,19.1
2018-09-01T05:54:25.883Z,19.16
2018-09-01T05:55:06.407Z,19.25
2018-09-01T05:55:46.925Z,19.22
2018-09-01T05:56:27.453Z,19.32
2018-09-01T05:57:08.000Z,19.44
2018-09-01T05:57:48.526Z,19.39
2018-09-01T05:58:29.051Z,19.48
2018-09-01T05:59:09.571Z,19.55
2018-09-01T05:59:50.123Z,19.47
2018-09-01T06:00:30.695Z,19.54
2018-09-01T06:01:11.157Z,19.43
2018-09-01T06:01:51.702Z,19.46
2018-09-01T06:02:32.238Z,19.54
2018-09-01T06:03:12.752Z,19.55
2018-09-01T06:03:53.277Z,19.48
2018-09-01T06:04:33.808Z,19.61
2018-09-01T06:05:14.334Z,19.55
2018-09-01T06:05:54.931Z,19.63
2018-09-01T06:06:35.358Z,19.69
2018-09-01T06:07:15.892Z,19.84
2018-09-01T06:07:56.405Z,19.87
2018-09-01T06:08:36.928Z,19.83
2018-09-01T06:09:17.442Z,19.66
2018-09-01T06:09:57.960Z,19.63
2018-09-01T06:10:38.489Z,19.56
2018-09-01T06:11:19.054Z,19.66
2018-09-01T06:11:59.532Z,19.71
2018-09-01T06:12:40.064Z,19.76
2018-09-01T06:13:20.574Z,19.68
2018-09-01T06:14:01.100Z,19.8
2018-09-01T06:14:41.610Z,19.78
2018-09-01T06:15:22.164Z,19.86
2018-09-01T06:16:02.683Z,19.73
2018-09-01T06:16:43.204Z,19.65
2018-09-01T06:17:23.761Z,19.54
2018-09-01T06:18:04.250Z,19.51
2018-09-01T06:18:44.741Z,19.54
2018-09-01T06:19:25.259Z,19.59
2018-09-01T06:20:05.803Z,19.58
2018-09-01T06:20:46.306Z,19.54
2018-09-01T06:21:26.835Z,19.4
2018-09-01T06:22:07.432Z,19.26
2018-09-01T06:22:47.962Z,19.21
2018-09-01T06:23:28.478Z,19.23
2018-09-01T06:24:08.989Z,19.25
2018-09-01T06:24:49.565Z,19.22
2018-09-01T06:25:30.031Z,19.22
2018-09-01T06:26:10.548Z,19.11
2018-09-01T06:26:51.083Z,19.04
2018-09-01T06:27:31.614Z,19.13
2018-09-01T06:28:12.127Z,19.28
2018-09-01T06:28:52.695Z,19.29
2018-09-01T06:29:33.214Z,19.22
2018-09-01T06:30:13.813Z,19.13
2018-09-01T06:30:54.250Z,19.21
2018-09-01T06:31:34.777Z,19.29
2018-09-01T06:32:15.282Z,19.19
2018-09-01T06:32:55.840Z,19.14
2018-09-01T06:33:36.346Z,19
2018-09-01T06:34:16.915Z,19.07
2018-09-01T06:34:57.389Z,19.04
2018-09-01T06:35:37.943Z,19.1
2018-09-01T06:36:18.431Z,18.99
2018-09-01T06:36:58.962Z,19.06
2018-09-01T06:37:39.519Z,19.02
2018-09-01T06:38:20.007Z,19.11
2018-09-01T06:39:00.535Z,19.18
2018-09-01T06:39:41.062Z,19.11
2018-09-01T06:40:21.584Z,19.1
2018-09-01T06:41:02.244Z,19.14
2018-09-01T06:41:42.780Z,19.18
2018-09-01T06:42:23.285Z,19.36
2018-09-01T06:43:03.831Z,19.25
2018-09-01T06:43:44.331Z,19.29
2018-09-01T06:44:24.844Z,19.23
2018-09-01T06:45:05.347Z,19.28
2018-09-01T06:45:45.869Z,19.41
2018-09-01T06:46:26.379Z,19.59
2018-09-01T06:47:06.893Z,19.58
2018-09-01T06:47:47.443Z,19.41
2018-09-01T06:48:27.960Z,19.58
2018-09-01T06:49:08.509Z,19.51
2018-09-01T06:49:49.126Z,19.66
2018-09-01T06:50:29.672Z,19.66
2018-09-01T06:51:10.184Z,19.63
2018-09-01T06:51:50.701Z,19.66
2018-09-01T06:52:31.213Z,19.58
2018-09-01T06:53:11.812Z,19.43
2018-09-01T06:53:52.306Z,19.4
2018-09-01T06:54:32.839Z,19.41
2018-09-01T06:55:13.357Z,19.44
2018-09-01T06:55:53.880Z,19.44
2018-09-01T06:56:34.616Z,19.32
2018-09-01T06:57:15.176Z,19.36
2018-09-01T06:57:55.718Z,19.4
2018-09-01T06:58:36.257Z,19.43
2018-09-01T06:59:16.792Z,19.58
2018-09-01T06:59:57.305Z,19.61
2018-09-01T07:00:37.849Z,19.69
2018-09-01T07:01:18.354Z,19.74
2018-09-01T07:01:58.874Z,19.86
2018-09-01T07:02:39.406Z,19.98
2018-09-01T07:03:19.932Z,20.13
2018-09-01T07:04:00.484Z,20.26
2018-09-01T07:04:40.984Z,20.42
2018-09-01T07:05:21.492Z,20.41
2018-09-01T07:06:02.036Z,20.43
2018-09-01T07:06:42.565Z,20.38
2018-09-01T07:07:23.084Z,20.52
2018-09-01T07:08:03.599Z,20.52
2018-09-01T07:08:44.146Z,20.57
2018-09-01T07:09:24.664Z,20.55
2018-09-01T07:10:05.184Z,20.48
2018-09-01T07:10:45.708Z,20.59
2018-09-01T07:11:26.223Z,20.72
2018-09-01T07:12:06.760Z,20.59
2018-09-01T07:12:47.308Z,20.77
2018-09-01T07:13:27.823Z,20.84
2018-09-01T07:14:08.356Z,20.87
2018-09-01T07:14:48.882Z,20.62
2018-09-01T07:15:29.391Z,20.57
2018-09-01T07:16:09.953Z,20.42
2018-09-01T07:16:50.458Z,20.48
2018-09-01T07:17:30.993Z,20.5
2018-09-01T07:19:08.855Z,20.54
2018-09-01T07:19:49.354Z,20.58
2018-09-01T07:20:29.896Z,20.73
2018-09-01T07:21:10.409Z,20.64
2018-09-01T07:21:50.921Z,20.61
2018-09-01T07:22:31.455Z,20.57
2018-09-01T07:23:11.948Z,20.58
2018-09-01T07:23:52.457Z,20.62
2018-09-01T07:24:32.991Z,20.61
2018-09-01T07:25:13.512Z,20.64
2018-09-01T07:25:54.053Z,20.57
2018-09-01T07:26:34.562Z,20.57
2018-09-01T07:27:15.098Z,20.61
2018-09-01T07:27:55.623Z,20.5
2018-09-01T07:28:36.138Z,20.61
2018-09-01T07:29:16.661Z,20.69
2018-09-01T07:29:57.186Z,20.72
2018-09-01T07:30:37.928Z,20.91
2018-09-01T07:31:18.696Z,20.88
2018-09-01T07:31:58.793Z,20.95
2018-09-01T07:32:39.376Z,21.19
2018-09-01T07:33:19.846Z,21.24
2018-09-01T07:34:00.369Z,21.22
2018-09-01T07:34:40.878Z,21.21
2018-09-01T07:35:21.427Z,21.25
2018-09-01T07:36:01.944Z,21.34
2018-09-01T07:36:42.479Z,21.31
2018-09-01T07:37:23.007Z,21.32
2018-09-01T07:38:04.420Z,21.27
2018-09-01T07:38:44.945Z,21.44
2018-09-01T07:39:25.446Z,21.34
2018-09-01T07:40:05.962Z,21.44
2018-09-01T07:40:46.483Z,21.25
2018-09-01T07:41:26.998Z,21.37
2018-09-01T07:42:07.551Z,21.52
2018-09-01T07:42:48.074Z,21.43
2018-09-01T07:43:28.596Z,21.61
2018-09-01T07:44:09.104Z,21.54
2018-09-01T07:44:49.642Z,21.64
2018-09-01T07:45:30.174Z,21.5
2018-09-01T07:46:10.687Z,21.47
2018-09-01T07:46:51.209Z,21.35
2018-09-01T07:47:31.740Z,21.52
2018-09-01T07:48:12.270Z,21.52
2018-09-01T07:48:52.795Z,21.29
2018-09-01T07:49:33.325Z,21.29
2018-09-01T07:50:13.837Z,21.32
2018-09-01T07:50:54.572Z,21.12
2018-09-01T07:51:35.116Z,21.34
2018-09-01T07:52:15.647Z,21.25
2018-09-01T07:52:56.186Z,21.25
2018-09-01T07:53:36.715Z,21.16
2018-09-01T07:54:17.226Z,21.01
2018-09-01T07:54:57.743Z,21.06
2018-09-01T07:55:38.328Z,21.06
2018-09-01T07:56:19.020Z,21.16
2018-09-01T07:56:59.409Z,21.27
2018-09-01T07:57:40.068Z,21.29
2018-09-01T07:58:20.618Z,21.13
2018-09-01T07:59:01.166Z,21.17
2018-09-01T07:59:41.711Z,21.19
2018-09-01T08:00:22.261Z,21.28
2018-09-01T08:01:02.774Z,21.24
2018-09-01T08:01:43.305Z,21.31
2018-09-01T08:02:24.065Z,21.28
2018-09-01T08:03:04.452Z,21.27
2018-09-01T08:03:45.019Z,21.31
2018-09-01T08:04:25.548Z,21.21
2018-09-01T08:05:06.081Z,21.28
2018-09-01T08:05:46.594Z,21.34
2018-09-01T08:06:27.121Z,21.4
2018-09-01T08:07:07.666Z,21.37
2018-09-01T08:07:48.179Z,21.38
2018-09-01T08:08:28.694Z,21.47
2018-09-01T08:09:09.219Z,21.46
2018-09-01T08:09:49.738Z,21.37
2018-09-01T08:10:30.267Z,21.4
2018-09-01T08:11:10.796Z,21.4
2018-09-01T08:11:51.309Z,21.46
2018-09-01T08:12:31.829Z,21.47
2018-09-01T08:13:12.351Z,21.61
2018-09-01T08:13:53.042Z,21.61
2018-09-01T08:14:33.451Z,21.61
2018-09-01T08:15:13.978Z,21.5
2018-09-01T08:15:54.526Z,21.43
2018-09-01T08:16:35.098Z,21.47
2018-09-01T08:17:15.802Z,21.61
2018-09-01T08:17:56.469Z,21.61
2018-09-01T08:18:37.005Z,21.4
2018-09-01T08:19:17.518Z,21.37
2018-09-01T08:19:58.190Z,21.5
2018-09-01T08:20:38.540Z,21.47
2018-09-01T08:21:19.070Z,21.64
2018-09-01T08:21:59.590Z,21.72
2018-09-01T08:22:40.130Z,21.9
2018-09-01T08:23:20.723Z,21.71
2018-09-01T08:24:01.300Z,21.83
2018-09-01T08:24:41.958Z,21.72
2018-09-01T08:25:22.484Z,21.82
2018-09-01T08:26:03.051Z,21.83
2018-09-01T08:26:43.524Z,21.74
2018-09-01T08:27:24.035Z,21.77
2018-09-01T08:28:04.614Z,21.83
2018-09-01T08:28:45.140Z,21.84
2018-09-01T08:29:25.722Z,21.79
2018-09-01T08:30:06.287Z,21.88
2018-09-01T08:30:46.802Z,21.91
2018-09-01T08:31:27.465Z,21.96
2018-09-01T08:32:08.056Z,21.83
2018-09-01T08:32:48.566Z,21.91
2018-09-01T08:33:29.153Z,21.91
2018-09-01T08:34:09.622Z,21.82
2018-09-01T08:34:50.175Z,21.92
2018-09-01T08:35:30.724Z,21.69
2018-09-01T08:36:11.286Z,21.69
2018-09-01T08:36:51.880Z,21.64
2018-09-01T08:37:32.399Z,21.68
2018-09-01T08:38:12.911Z,21.67
2018-09-01T08:38:53.446Z,21.77
2018-09-01T08:39:34.091Z,21.77
2018-09-01T08:40:14.628Z,21.77
2018-09-01T08:40:55.115Z,21.65
2018-09-01T08:41:36.590Z,21.65
2018-09-01T08:42:16.215Z,21.49
2018-09-01T08:42:56.734Z,21.49
2018-09-01T08:43:37.275Z,21.42
2018-09-01T08:44:17.817Z,21.31
2018-09-01T08:44:58.348Z,21.31
2018-09-01T08:45:38.855Z,21.31
2018-09-01T08:46:19.460Z,21.24
2018-09-01T08:46:59.991Z,21.29
2018-09-01T08:47:40.505Z,21.25